sensor_id;sensor_type;location;lat;lon;timestamp;pressure;altitude;pressure_sealevel;temperature;humidity
30081;BME280;16902;50.816;12.828;2023-08-08T00:02:57;97604.69;;;10.07;100.00
30081;BME280;16902;50.816;12.828;2023-08-08T00:07:59;97608.25;;;10.05;100.00
30081;BME280;16902;50.816;12.828;2023-08-08T00:13:01;97599.31;;;10.08;100.00
30081;BME280;16902;50.816;12.828;2023-08-08T00:18:03;97594.19;;;10.00;100.00
30081;BME280;16902;50.816;12.828;2023-08-08T00:23:05;97597.25;;;9.89;100.00
30081;BME280;16902;50.816;12.828;2023-08-08T00:28:07;97591.84;;;9.90;100.00
30081;BME280;16902;50.816;12.828;2023-08-08T00:33:09;97600.28;;;9.77;100.00
30081;BME280;16902;50.816;12.828;2023-08-08T00:38:11;97601.00;;;9.86;100.00
30081;BME280;16902;50.816;12.828;2023-08-08T00:43:13;97600.38;;;9.84;100.00
30081;BME280;16902;50.816;12.828;2023-08-08T00:48:15;97592.91;;;9.66;100.00
30081;BME280;16902;50.816;12.828;2023-08-08T00:53:18;97590.78;;;9.70;100.00
30081;BME280;16902;50.816;12.828;2023-08-08T00:58:20;97592.28;;;9.64;100.00
30081;BME280;16902;50.816;12.828;2023-08-08T01:03:22;97598.19;;;9.43;100.00
30081;BME280;16902;50.816;12.828;2023-08-08T01:08:33;97593.00;;;9.43;100.00
30081;BME280;16902;50.816;12.828;2023-08-08T01:13:38;97594.16;;;9.56;100.00
30081;BME280;16902;50.816;12.828;2023-08-08T01:18:42;97583.22;;;9.60;100.00
30081;BME280;16902;50.816;12.828;2023-08-08T01:23:56;97583.56;;;9.57;100.00
30081;BME280;16902;50.816;12.828;2023-08-08T01:29:02;97588.97;;;9.56;100.00
30081;BME280;16902;50.816;12.828;2023-08-08T01:34:04;97576.78;;;9.56;100.00
30081;BME280;16902;50.816;12.828;2023-08-08T01:39:08;97585.75;;;9.53;100.00
30081;BME280;16902;50.816;12.828;2023-08-08T01:44:11;97581.06;;;9.49;100.00
30081;BME280;16902;50.816;12.828;2023-08-08T01:49:13;97579.00;;;9.44;100.00
30081;BME280;16902;50.816;12.828;2023-08-08T01:54:15;97581.34;;;9.39;100.00
30081;BME280;16902;50.816;12.828;2023-08-08T01:59:17;97580.66;;;9.22;100.00
30081;BME280;16902;50.816;12.828;2023-08-08T02:04:20;97578.06;;;9.22;100.00
30081;BME280;16902;50.816;12.828;2023-08-08T02:09:22;97579.84;;;9.22;100.00
30081;BME280;16902;50.816;12.828;2023-08-08T02:14:25;97570.88;;;9.10;100.00
30081;BME280;16902;50.816;12.828;2023-08-08T02:19:28;97567.09;;;9.12;100.00
30081;BME280;16902;50.816;12.828;2023-08-08T02:24:31;97572.56;;;9.17;100.00
30081;BME280;16902;50.816;12.828;2023-08-08T02:29:33;97566.28;;;9.12;100.00
30081;BME280;16902;50.816;12.828;2023-08-08T02:34:35;97579.63;;;9.09;100.00
30081;BME280;16902;50.816;12.828;2023-08-08T02:39:37;97576.59;;;9.05;100.00
30081;BME280;16902;50.816;12.828;2023-08-08T02:44:39;97577.44;;;8.97;100.00
30081;BME280;16902;50.816;12.828;2023-08-08T02:49:41;97578.94;;;8.92;100.00
30081;BME280;16902;50.816;12.828;2023-08-08T02:54:43;97573.66;;;8.85;100.00
30081;BME280;16902;50.816;12.828;2023-08-08T02:59:46;97577.84;;;8.63;100.00
30081;BME280;16902;50.816;12.828;2023-08-08T03:04:48;97565.66;;;8.33;100.00
30081;BME280;16902;50.816;12.828;2023-08-08T03:09:50;97568.63;;;8.21;100.00
30081;BME280;16902;50.816;12.828;2023-08-08T03:14:53;97569.69;;;8.35;100.00
30081;BME280;16902;50.816;12.828;2023-08-08T03:19:56;97565.41;;;8.50;100.00
30081;BME280;16902;50.816;12.828;2023-08-08T03:25:00;97553.38;;;8.58;100.00
30081;BME280;16902;50.816;12.828;2023-08-08T03:30:02;97555.06;;;8.73;100.00
30081;BME280;16902;50.816;12.828;2023-08-08T03:35:10;97560.63;;;8.70;100.00
30081;BME280;16902;50.816;12.828;2023-08-08T03:40:15;97545.03;;;8.70;100.00
30081;BME280;16902;50.816;12.828;2023-08-08T03:45:17;97552.34;;;8.67;100.00
30081;BME280;16902;50.816;12.828;2023-08-08T03:50:20;97536.84;;;8.82;100.00
30081;BME280;16902;50.816;12.828;2023-08-08T03:55:22;97545.25;;;8.84;100.00
30081;BME280;16902;50.816;12.828;2023-08-08T04:00:24;97534.38;;;9.03;100.00
30081;BME280;16902;50.816;12.828;2023-08-08T04:05:26;97532.53;;;9.12;100.00
30081;BME280;16902;50.816;12.828;2023-08-08T04:10:28;97542.94;;;9.26;100.00
30081;BME280;16902;50.816;12.828;2023-08-08T04:15:30;97547.00;;;9.29;100.00
30081;BME280;16902;50.816;12.828;2023-08-08T04:20:33;97542.09;;;9.34;100.00
30081;BME280;16902;50.816;12.828;2023-08-08T04:25:36;97547.56;;;9.39;100.00
30081;BME280;16902;50.816;12.828;2023-08-08T04:30:37;97544.44;;;9.44;100.00
30081;BME280;16902;50.816;12.828;2023-08-08T04:35:39;97538.44;;;9.58;100.00
30081;BME280;16902;50.816;12.828;2023-08-08T04:40:41;97551.25;;;9.74;100.00
30081;BME280;16902;50.816;12.828;2023-08-08T04:45:43;97543.34;;;9.97;100.00
30081;BME280;16902;50.816;12.828;2023-08-08T04:50:48;97538.66;;;10.22;100.00
30081;BME280;16902;50.816;12.828;2023-08-08T04:55:50;97550.19;;;10.49;100.00
30081;BME280;16902;50.816;12.828;2023-08-08T05:00:52;97552.25;;;10.75;100.00
30081;BME280;16902;50.816;12.828;2023-08-08T05:05:54;97542.94;;;10.88;100.00
30081;BME280;16902;50.816;12.828;2023-08-08T05:10:56;97542.56;;;10.91;100.00
30081;BME280;16902;50.816;12.828;2023-08-08T05:15:58;97553.69;;;10.99;100.00
30081;BME280;16902;50.816;12.828;2023-08-08T05:21:00;97549.75;;;11.10;100.00
30081;BME280;16902;50.816;12.828;2023-08-08T05:26:02;97540.78;;;11.13;100.00
30081;BME280;16902;50.816;12.828;2023-08-08T05:31:04;97546.69;;;11.28;100.00
30081;BME280;16902;50.816;12.828;2023-08-08T05:36:07;97543.94;;;11.36;100.00
30081;BME280;16902;50.816;12.828;2023-08-08T05:41:09;97547.41;;;11.43;100.00
30081;BME280;16902;50.816;12.828;2023-08-08T05:46:11;97560.69;;;11.48;100.00
30081;BME280;16902;50.816;12.828;2023-08-08T05:51:13;97555.09;;;11.51;100.00
30081;BME280;16902;50.816;12.828;2023-08-08T05:56:15;97563.75;;;11.58;100.00
30081;BME280;16902;50.816;12.828;2023-08-08T06:01:17;97557.59;;;11.66;100.00
30081;BME280;16902;50.816;12.828;2023-08-08T06:06:19;97556.50;;;11.82;100.00
30081;BME280;16902;50.816;12.828;2023-08-08T06:11:21;97547.41;;;12.13;100.00
30081;BME280;16902;50.816;12.828;2023-08-08T06:16:23;97545.50;;;12.34;100.00
30081;BME280;16902;50.816;12.828;2023-08-08T06:21:26;97559.34;;;12.35;100.00
30081;BME280;16902;50.816;12.828;2023-08-08T06:26:28;97568.03;;;12.49;100.00
30081;BME280;16902;50.816;12.828;2023-08-08T06:31:30;97572.31;;;12.70;100.00
30081;BME280;16902;50.816;12.828;2023-08-08T06:36:32;97565.91;;;12.72;100.00
30081;BME280;16902;50.816;12.828;2023-08-08T06:41:34;97572.41;;;12.35;100.00
30081;BME280;16902;50.816;12.828;2023-08-08T06:46:36;97562.31;;;11.84;100.00
30081;BME280;16902;50.816;12.828;2023-08-08T06:51:38;97569.06;;;11.44;100.00
30081;BME280;16902;50.816;12.828;2023-08-08T06:56:40;97557.78;;;11.37;100.00
30081;BME280;16902;50.816;12.828;2023-08-08T07:01:42;97564.09;;;11.49;100.00
30081;BME280;16902;50.816;12.828;2023-08-08T07:06:44;97571.38;;;11.60;100.00
30081;BME280;16902;50.816;12.828;2023-08-08T07:11:46;97568.84;;;11.73;100.00
30081;BME280;16902;50.816;12.828;2023-08-08T07:16:48;97568.38;;;11.85;100.00
30081;BME280;16902;50.816;12.828;2023-08-08T07:21:50;97558.91;;;11.83;100.00
30081;BME280;16902;50.816;12.828;2023-08-08T07:26:52;97565.22;;;11.68;100.00
30081;BME280;16902;50.816;12.828;2023-08-08T07:31:55;97543.56;;;11.74;100.00
30081;BME280;16902;50.816;12.828;2023-08-08T07:36:57;97534.69;;;11.90;100.00
30081;BME280;16902;50.816;12.828;2023-08-08T07:41:58;97541.38;;;12.12;100.00
30081;BME280;16902;50.816;12.828;2023-08-08T07:47:01;97559.16;;;12.37;100.00
30081;BME280;16902;50.816;12.828;2023-08-08T07:52:03;97556.41;;;12.65;100.00
30081;BME280;16902;50.816;12.828;2023-08-08T07:57:05;97545.03;;;13.05;100.00
30081;BME280;16902;50.816;12.828;2023-08-08T08:02:07;97555.28;;;13.67;100.00
30081;BME280;16902;50.816;12.828;2023-08-08T08:07:09;97568.66;;;14.10;100.00
30081;BME280;16902;50.816;12.828;2023-08-08T08:12:11;97561.59;;;14.17;100.00
30081;BME280;16902;50.816;12.828;2023-08-08T08:17:13;97555.16;;;14.13;100.00
30081;BME280;16902;50.816;12.828;2023-08-08T08:22:15;97570.78;;;14.26;100.00
30081;BME280;16902;50.816;12.828;2023-08-08T08:27:17;97572.75;;;14.51;100.00
30081;BME280;16902;50.816;12.828;2023-08-08T08:32:19;97566.41;;;14.72;100.00
30081;BME280;16902;50.816;12.828;2023-08-08T08:37:22;97558.16;;;15.50;100.00
30081;BME280;16902;50.816;12.828;2023-08-08T08:42:26;97560.00;;;15.24;100.00
30081;BME280;16902;50.816;12.828;2023-08-08T08:47:31;97555.41;;;15.13;100.00
30081;BME280;16902;50.816;12.828;2023-08-08T08:52:33;97559.88;;;15.81;100.00
30081;BME280;16902;50.816;12.828;2023-08-08T08:57:35;97552.91;;;16.11;100.00
30081;BME280;16902;50.816;12.828;2023-08-08T09:02:38;97564.09;;;16.85;100.00
30081;BME280;16902;50.816;12.828;2023-08-08T09:07:40;97559.38;;;16.76;100.00
30081;BME280;16902;50.816;12.828;2023-08-08T09:12:42;97551.25;;;17.07;100.00
30081;BME280;16902;50.816;12.828;2023-08-08T09:17:44;97549.31;;;16.73;100.00
30081;BME280;16902;50.816;12.828;2023-08-08T09:22:51;97550.41;;;16.95;100.00
30081;BME280;16902;50.816;12.828;2023-08-08T09:27:54;97545.31;;;17.12;100.00
30081;BME280;16902;50.816;12.828;2023-08-08T09:33:01;97546.13;;;17.59;100.00
30081;BME280;16902;50.816;12.828;2023-08-08T09:38:03;97550.13;;;17.27;100.00
30081;BME280;16902;50.816;12.828;2023-08-08T09:43:07;97557.84;;;16.38;100.00
30081;BME280;16902;50.816;12.828;2023-08-08T09:48:09;97544.75;;;15.83;100.00
30081;BME280;16902;50.816;12.828;2023-08-08T09:53:11;97535.56;;;15.92;100.00
30081;BME280;16902;50.816;12.828;2023-08-08T09:58:13;97535.41;;;16.54;100.00
30081;BME280;16902;50.816;12.828;2023-08-08T10:03:19;97535.81;;;17.23;100.00
30081;BME280;16902;50.816;12.828;2023-08-08T10:08:21;97531.25;;;17.41;100.00
30081;BME280;16902;50.816;12.828;2023-08-08T10:13:25;97532.84;;;17.07;100.00
30081;BME280;16902;50.816;12.828;2023-08-08T10:18:27;97531.13;;;16.41;100.00
30081;BME280;16902;50.816;12.828;2023-08-08T10:23:36;97527.31;;;16.07;100.00
30081;BME280;16902;50.816;12.828;2023-08-08T10:28:39;97522.84;;;16.56;100.00
30081;BME280;16902;50.816;12.828;2023-08-08T10:33:42;97516.59;;;17.10;100.00
30081;BME280;16902;50.816;12.828;2023-08-08T10:38:47;97516.72;;;17.74;100.00
30081;BME280;16902;50.816;12.828;2023-08-08T10:43:52;97501.78;;;18.32;100.00
30081;BME280;16902;50.816;12.828;2023-08-08T10:48:56;97496.72;;;18.42;100.00
30081;BME280;16902;50.816;12.828;2023-08-08T10:54:04;97491.56;;;18.92;100.00
30081;BME280;16902;50.816;12.828;2023-08-08T10:59:26;97484.09;;;19.23;100.00
30081;BME280;16902;50.816;12.828;2023-08-08T11:04:29;97475.84;;;19.36;100.00
30081;BME280;16902;50.816;12.828;2023-08-08T11:09:34;97464.34;;;19.25;100.00
30081;BME280;16902;50.816;12.828;2023-08-08T11:14:36;97452.56;;;21.44;100.00
30081;BME280;16902;50.816;12.828;2023-08-08T11:19:39;97467.94;;;19.75;100.00
30081;BME280;16902;50.816;12.828;2023-08-08T11:24:41;97454.28;;;22.49;65.71
30081;BME280;16902;50.816;12.828;2023-08-08T11:29:49;97459.66;;;21.86;62.76
30081;BME280;16902;50.816;12.828;2023-08-08T11:34:52;97450.31;;;21.73;64.03
30081;BME280;16902;50.816;12.828;2023-08-08T11:39:54;97456.00;;;19.72;79.35
30081;BME280;16902;50.816;12.828;2023-08-08T11:44:55;97444.22;;;18.23;100.00
30081;BME280;16902;50.816;12.828;2023-08-08T11:49:57;97442.94;;;18.26;100.00
30081;BME280;16902;50.816;12.828;2023-08-08T11:54:59;97441.81;;;20.82;100.00
30081;BME280;16902;50.816;12.828;2023-08-08T12:00:08;97443.38;;;23.32;64.55
30081;BME280;16902;50.816;12.828;2023-08-08T12:05:14;97435.94;;;24.53;53.84
30081;BME280;16902;50.816;12.828;2023-08-08T12:10:21;97430.66;;;23.14;54.50
30081;BME280;16902;50.816;12.828;2023-08-08T12:15:23;97432.69;;;20.40;78.83
30081;BME280;16902;50.816;12.828;2023-08-08T12:20:27;97434.06;;;19.94;95.72
30081;BME280;16902;50.816;12.828;2023-08-08T12:25:30;97423.34;;;21.92;64.61
30081;BME280;16902;50.816;12.828;2023-08-08T12:30:32;97426.13;;;24.49;51.23
30081;BME280;16902;50.816;12.828;2023-08-08T12:35:34;97419.78;;;22.74;53.87
30081;BME280;16902;50.816;12.828;2023-08-08T12:40:36;97417.13;;;22.49;52.41
30081;BME280;16902;50.816;12.828;2023-08-08T12:45:37;97412.34;;;20.41;74.49
30081;BME280;16902;50.816;12.828;2023-08-08T12:50:39;97417.06;;;19.24;100.00
30081;BME280;16902;50.816;12.828;2023-08-08T12:55:42;97413.97;;;21.64;70.06
30081;BME280;16902;50.816;12.828;2023-08-08T13:00:43;97418.91;;;20.11;84.48
30081;BME280;16902;50.816;12.828;2023-08-08T13:05:46;97417.31;;;21.01;83.59
30081;BME280;16902;50.816;12.828;2023-08-08T13:10:48;97405.63;;;21.35;70.62
30081;BME280;16902;50.816;12.828;2023-08-08T13:15:50;97420.31;;;24.76;58.18
30081;BME280;16902;50.816;12.828;2023-08-08T13:20:52;97412.59;;;22.80;48.35
30081;BME280;16902;50.816;12.828;2023-08-08T13:25:53;97404.50;;;24.11;46.62
30081;BME280;16902;50.816;12.828;2023-08-08T13:30:56;97407.53;;;22.27;50.92
30081;BME280;16902;50.816;12.828;2023-08-08T13:35:57;97407.41;;;21.24;55.99
30081;BME280;16902;50.816;12.828;2023-08-08T13:40:59;97408.31;;;21.40;54.13
30081;BME280;16902;50.816;12.828;2023-08-08T13:46:01;97426.03;;;23.45;46.68
30081;BME280;16902;50.816;12.828;2023-08-08T13:51:06;97418.56;;;23.57;46.70
30081;BME280;16902;50.816;12.828;2023-08-08T13:56:08;97422.44;;;22.64;50.03
30081;BME280;16902;50.816;12.828;2023-08-08T14:01:12;97416.28;;;19.84;60.72
30081;BME280;16902;50.816;12.828;2023-08-08T14:06:14;97417.03;;;18.85;79.02
30081;BME280;16902;50.816;12.828;2023-08-08T14:11:16;97429.69;;;20.59;64.26
30081;BME280;16902;50.816;12.828;2023-08-08T14:16:17;97423.75;;;21.11;58.14
30081;BME280;16902;50.816;12.828;2023-08-08T14:21:19;97412.72;;;21.76;55.05
30081;BME280;16902;50.816;12.828;2023-08-08T14:26:21;97435.34;;;23.52;48.08
30081;BME280;16902;50.816;12.828;2023-08-08T14:31:22;97425.50;;;20.63;56.93
30081;BME280;16902;50.816;12.828;2023-08-08T14:36:24;97436.13;;;19.09;68.48
30081;BME280;16902;50.816;12.828;2023-08-08T14:41:26;97435.97;;;19.16;83.18
30081;BME280;16902;50.816;12.828;2023-08-08T14:46:28;97436.47;;;18.79;94.39
30081;BME280;16902;50.816;12.828;2023-08-08T14:51:31;97440.81;;;18.40;93.39
30081;BME280;16902;50.816;12.828;2023-08-08T14:56:33;97450.03;;;17.97;100.00
30081;BME280;16902;50.816;12.828;2023-08-08T15:01:34;97460.66;;;17.15;100.00
30081;BME280;16902;50.816;12.828;2023-08-08T15:06:36;97457.44;;;16.48;100.00
30081;BME280;16902;50.816;12.828;2023-08-08T15:11:41;97483.03;;;16.40;100.00
30081;BME280;16902;50.816;12.828;2023-08-08T15:16:51;97485.09;;;15.03;100.00
30081;BME280;16902;50.816;12.828;2023-08-08T15:21:53;97469.22;;;14.35;100.00
30081;BME280;16902;50.816;12.828;2023-08-08T15:26:55;97478.66;;;14.04;100.00
30081;BME280;16902;50.816;12.828;2023-08-08T15:31:57;97481.50;;;13.96;100.00
30081;BME280;16902;50.816;12.828;2023-08-08T15:36:59;97504.63;;;14.12;100.00
30081;BME280;16902;50.816;12.828;2023-08-08T15:42:03;97545.13;;;14.03;100.00
30081;BME280;16902;50.816;12.828;2023-08-08T15:47:05;97553.91;;;13.31;100.00
30081;BME280;16902;50.816;12.828;2023-08-08T15:52:07;97540.19;;;12.96;100.00
30081;BME280;16902;50.816;12.828;2023-08-08T15:57:08;97542.78;;;12.96;100.00
30081;BME280;16902;50.816;12.828;2023-08-08T16:02:11;97538.41;;;12.96;100.00
30081;BME280;16902;50.816;12.828;2023-08-08T16:07:12;97530.34;;;12.84;100.00
30081;BME280;16902;50.816;12.828;2023-08-08T16:12:19;97533.13;;;12.76;100.00
30081;BME280;16902;50.816;12.828;2023-08-08T16:17:21;97538.75;;;12.67;100.00
30081;BME280;16902;50.816;12.828;2023-08-08T16:22:22;97541.41;;;12.86;100.00
30081;BME280;16902;50.816;12.828;2023-08-08T16:27:24;97534.16;;;12.95;100.00
30081;BME280;16902;50.816;12.828;2023-08-08T16:32:26;97552.06;;;12.98;100.00
30081;BME280;16902;50.816;12.828;2023-08-08T16:37:28;97548.47;;;13.06;100.00
30081;BME280;16902;50.816;12.828;2023-08-08T16:42:30;97538.78;;;13.00;100.00
30081;BME280;16902;50.816;12.828;2023-08-08T16:47:31;97529.94;;;12.88;100.00
30081;BME280;16902;50.816;12.828;2023-08-08T16:52:33;97528.31;;;12.80;100.00
30081;BME280;16902;50.816;12.828;2023-08-08T16:57:35;97518.88;;;12.79;100.00
30081;BME280;16902;50.816;12.828;2023-08-08T17:02:36;97526.53;;;12.87;100.00
30081;BME280;16902;50.816;12.828;2023-08-08T17:07:38;97516.69;;;12.82;100.00
30081;BME280;16902;50.816;12.828;2023-08-08T17:12:40;97522.09;;;12.94;100.00
30081;BME280;16902;50.816;12.828;2023-08-08T17:17:42;97522.72;;;12.96;100.00
30081;BME280;16902;50.816;12.828;2023-08-08T17:22:43;97533.16;;;12.90;100.00
30081;BME280;16902;50.816;12.828;2023-08-08T17:27:46;97527.91;;;12.90;100.00
30081;BME280;16902;50.816;12.828;2023-08-08T17:32:48;97532.75;;;12.79;100.00
30081;BME280;16902;50.816;12.828;2023-08-08T17:37:50;97528.72;;;12.90;100.00
30081;BME280;16902;50.816;12.828;2023-08-08T17:42:52;97522.28;;;12.86;100.00
30081;BME280;16902;50.816;12.828;2023-08-08T17:47:54;97516.91;;;13.01;100.00
30081;BME280;16902;50.816;12.828;2023-08-08T17:52:56;97517.09;;;13.06;100.00
30081;BME280;16902;50.816;12.828;2023-08-08T17:57:58;97515.69;;;13.17;100.00
30081;BME280;16902;50.816;12.828;2023-08-08T18:02:59;97510.66;;;13.08;100.00
30081;BME280;16902;50.816;12.828;2023-08-08T18:08:01;97514.47;;;13.12;100.00
30081;BME280;16902;50.816;12.828;2023-08-08T18:13:03;97514.28;;;12.88;100.00
30081;BME280;16902;50.816;12.828;2023-08-08T18:18:05;97517.84;;;12.67;100.00
30081;BME280;16902;50.816;12.828;2023-08-08T18:23:08;97524.06;;;12.59;100.00
30081;BME280;16902;50.816;12.828;2023-08-08T18:28:09;97528.28;;;12.60;100.00
30081;BME280;16902;50.816;12.828;2023-08-08T18:33:11;97516.63;;;12.56;100.00
30081;BME280;16902;50.816;12.828;2023-08-08T18:38:13;97518.63;;;12.54;100.00
30081;BME280;16902;50.816;12.828;2023-08-08T18:43:15;97524.44;;;12.49;100.00
30081;BME280;16902;50.816;12.828;2023-08-08T18:48:17;97516.00;;;12.47;100.00
30081;BME280;16902;50.816;12.828;2023-08-08T18:53:18;97527.47;;;12.53;100.00
30081;BME280;16902;50.816;12.828;2023-08-08T18:58:20;97522.63;;;12.50;100.00
30081;BME280;16902;50.816;12.828;2023-08-08T19:03:22;97526.44;;;12.47;100.00
30081;BME280;16902;50.816;12.828;2023-08-08T19:08:24;97523.81;;;12.47;100.00
30081;BME280;16902;50.816;12.828;2023-08-08T19:13:26;97525.63;;;12.47;100.00
30081;BME280;16902;50.816;12.828;2023-08-08T19:18:28;97526.06;;;12.50;100.00
30081;BME280;16902;50.816;12.828;2023-08-08T19:23:29;97526.06;;;12.50;100.00
30081;BME280;16902;50.816;12.828;2023-08-08T19:28:31;97526.44;;;12.47;100.00
30081;BME280;16902;50.816;12.828;2023-08-08T19:33:33;97526.66;;;12.46;100.00
30081;BME280;16902;50.816;12.828;2023-08-08T19:38:35;97531.06;;;12.45;100.00
30081;BME280;16902;50.816;12.828;2023-08-08T19:43:37;97523.03;;;12.47;100.00
30081;BME280;16902;50.816;12.828;2023-08-08T19:48:39;97513.38;;;12.47;100.00
30081;BME280;16902;50.816;12.828;2023-08-08T19:53:41;97516.19;;;12.46;100.00
30081;BME280;16902;50.816;12.828;2023-08-08T19:58:43;97515.22;;;12.53;100.00
30081;BME280;16902;50.816;12.828;2023-08-08T20:03:45;97518.25;;;12.64;100.00
30081;BME280;16902;50.816;12.828;2023-08-08T20:08:47;97507.00;;;12.70;100.00
30081;BME280;16902;50.816;12.828;2023-08-08T20:13:49;97512.41;;;12.55;100.00
30081;BME280;16902;50.816;12.828;2023-08-08T20:18:50;97510.22;;;12.65;100.00
30081;BME280;16902;50.816;12.828;2023-08-08T20:23:52;97515.63;;;12.57;100.00
30081;BME280;16902;50.816;12.828;2023-08-08T20:28:54;97520.56;;;12.32;100.00
30081;BME280;16902;50.816;12.828;2023-08-08T20:33:56;97523.47;;;12.02;100.00
30081;BME280;16902;50.816;12.828;2023-08-08T20:38:58;97511.00;;;11.85;100.00
30081;BME280;16902;50.816;12.828;2023-08-08T20:44:00;97506.09;;;11.75;100.00
30081;BME280;16902;50.816;12.828;2023-08-08T20:49:01;97519.63;;;11.92;100.00
30081;BME280;16902;50.816;12.828;2023-08-08T20:54:03;97514.03;;;11.95;100.00
30081;BME280;16902;50.816;12.828;2023-08-08T20:59:05;97514.22;;;11.93;100.00
30081;BME280;16902;50.816;12.828;2023-08-08T21:04:07;97529.97;;;11.44;100.00
30081;BME280;16902;50.816;12.828;2023-08-08T21:09:09;97518.22;;;10.98;100.00
30081;BME280;16902;50.816;12.828;2023-08-08T21:14:11;97512.16;;;10.70;100.00
30081;BME280;16902;50.816;12.828;2023-08-08T21:19:13;97517.97;;;10.50;100.00
30081;BME280;16902;50.816;12.828;2023-08-08T21:24:15;97519.81;;;10.35;100.00
30081;BME280;16902;50.816;12.828;2023-08-08T21:29:16;97521.34;;;10.29;100.00
30081;BME280;16902;50.816;12.828;2023-08-08T21:34:18;97521.34;;;10.29;100.00
30081;BME280;16902;50.816;12.828;2023-08-08T21:39:20;97520.78;;;10.34;100.00
30081;BME280;16902;50.816;12.828;2023-08-08T21:44:21;97526.78;;;10.35;100.00
30081;BME280;16902;50.816;12.828;2023-08-08T21:49:23;97528.34;;;10.29;100.00
30081;BME280;16902;50.816;12.828;2023-08-08T21:54:25;97540.53;;;10.28;100.00
30081;BME280;16902;50.816;12.828;2023-08-08T21:59:26;97539.81;;;10.20;100.00
30081;BME280;16902;50.816;12.828;2023-08-08T22:04:28;97542.88;;;10.09;100.00
30081;BME280;16902;50.816;12.828;2023-08-08T22:09:30;97537.06;;;10.07;100.00
30081;BME280;16902;50.816;12.828;2023-08-08T22:14:32;97551.75;;;9.99;100.00
30081;BME280;16902;50.816;12.828;2023-08-08T22:19:34;97545.03;;;9.90;100.00
30081;BME280;16902;50.816;12.828;2023-08-08T22:24:35;97542.09;;;9.78;100.00
30081;BME280;16902;50.816;12.828;2023-08-08T22:29:37;97544.25;;;9.75;100.00
30081;BME280;16902;50.816;12.828;2023-08-08T22:34:39;97552.06;;;9.75;100.00
30081;BME280;16902;50.816;12.828;2023-08-08T22:39:41;97554.19;;;9.71;100.00
30081;BME280;16902;50.816;12.828;2023-08-08T22:44:42;97556.53;;;9.66;100.00
30081;BME280;16902;50.816;12.828;2023-08-08T22:49:44;97564.84;;;9.62;100.00
30081;BME280;16902;50.816;12.828;2023-08-08T22:54:48;97559.22;;;9.58;100.00
30081;BME280;16902;50.816;12.828;2023-08-08T22:59:49;97562.63;;;9.59;100.00
30081;BME280;16902;50.816;12.828;2023-08-08T23:04:51;97553.84;;;9.74;100.00
30081;BME280;16902;50.816;12.828;2023-08-08T23:09:53;97562.00;;;9.86;100.00
30081;BME280;16902;50.816;12.828;2023-08-08T23:14:54;97560.38;;;9.85;100.00
30081;BME280;16902;50.816;12.828;2023-08-08T23:19:56;97557.78;;;9.85;100.00
30081;BME280;16902;50.816;12.828;2023-08-08T23:24:58;97554.03;;;9.88;100.00
30081;BME280;16902;50.816;12.828;2023-08-08T23:30:00;97542.09;;;9.93;100.00
30081;BME280;16902;50.816;12.828;2023-08-08T23:35:03;97554.91;;;9.95;100.00
30081;BME280;16902;50.816;12.828;2023-08-08T23:40:05;97550.44;;;10.03;100.00
30081;BME280;16902;50.816;12.828;2023-08-08T23:45:08;97546.13;;;10.11;100.00
30081;BME280;16902;50.816;12.828;2023-08-08T23:50:12;97540.28;;;10.09;100.00
30081;BME280;16902;50.816;12.828;2023-08-08T23:55:14;97543.69;;;10.09;100.00
